Terminal Aerodrome Forecast
Issued by NWS Wakefield, VA

Current Version | Previous Version | Text Only | Print | Product List | Glossary On
Versions: 1 2 3 4 5 6 7 8 9 10 11 12 13 14 15 16 17 18 19 20 21 22 23 24 25 26 27
000
FTUS41 KAKQ 120100 AAA
TAFECG
TAF AMD
KECG 120135Z 1202/1224 07005KT P6SM SCT015
      TEMPO 1202/1203 BKN012
     FM120500 05003KT 4SM BR SCT250
     FM121300 08008KT P6SM SCT250=

USA.gov is the U.S. government's official web portal to all federal, state and local government web resources and services.